Terminal Aerodrome Forecast
Issued by NWS

Home | Current Version | Previous Version | Text Only | Print | Product List | Glossary On
Versions: 1 2 3 4 5 6 7 8 9 10 11 12
000
FTUS46 KMTR 241720
TAFSJC
TAF
KSJC 241720Z 2418/2518 VRB03KT P6SM SKC
     FM242000 31012KT P6SM SKC
     FM250400 31005KT P6SM SKC
     FM250900 15004KT P6SM SCT012
      TEMPO 2514/2517 BKN012=

USA.gov is the U.S. government's official web portal to all federal, state and local government web resources and services.